»·PEaware :: N2494V KGTF-KBIL

N2494V :: KGTF-KBIL

FLIGHT INFORMATION

Flight Status: Arrived
Operator: Privately registered:
United States
More flights under this callsign
Pilot: Sally S. (18014)
Aircraft: Unknown
(DA62)
More flights by this aircraft type
Origin: KGTF Great Falls Intl
United States
Destination: KBIL Billings Logan Intl
United States
More flights between these airports :: More routes between these airports
Route:
File this flight plan on PilotEdge
Remarks:
Altitude:
(Current/Filed)
9,500ft
Speed:
(Current/Filed)
165kts
Departed: 13-May-18 09:35 AM
Arrived: 13-May-18 10:36 AM
Distance/Time
Traveled:
154nm/1:01
Distance/Time
To Go:
Arrived

Flight Plot

Page will automatically refresh every two minutes.

Flight plan parsing failed; only flown route is shown


Map Options




Map Legend


Flown Route
Filed Route
Departure Airport
Arrival Airport
Navaid (VOR, NDB)
Fix

Horizontal Profiles

Position Reports

Time Latitude Longitude Heading Altitude Ground
Speed
13-May-18 09:34 47.445236 -111.207476 127 7866ft 132kts
13-May-18 09:35 47.421274 -111.166540 125 8763ft 132kts
13-May-18 09:36 47.397251 -111.125466 124 9499ft 143kts
13-May-18 09:37 47.368787 -111.076937 125 9503ft 172kts
13-May-18 09:38 47.338186 -111.024978 126 9501ft 176kts
13-May-18 09:39 47.306165 -110.970653 127 9500ft 176kts
13-May-18 09:40 47.274686 -110.917341 127 9499ft 170kts
13-May-18 09:41 47.250536 -110.865782 102 9502ft 164kts
13-May-18 09:42 47.239014 -110.811198 107 9498ft 152kts
13-May-18 09:43 47.232004 -110.785376 107 9499ft 149kts
13-May-18 09:44 47.225022 -110.759749 107 9499ft 148kts
13-May-18 09:45 47.218102 -110.734372 107 9500ft 147kts
13-May-18 09:46 47.211199 -110.709066 107 9500ft 147kts
13-May-18 09:47 47.204281 -110.683705 107 9500ft 147kts
13-May-18 09:48 47.197396 -110.658458 107 9500ft 147kts
13-May-18 09:49 47.188044 -110.624153 107 9500ft 147kts
13-May-18 09:50 47.168333 -110.569848 130 9505ft 163kts
13-May-18 09:51 47.136042 -110.520709 130 9501ft 170kts
13-May-18 09:52 47.103974 -110.471344 130 9500ft 171kts
13-May-18 09:53 47.071278 -110.420968 130 9500ft 171kts
13-May-18 09:54 47.038428 -110.370425 129 9499ft 171kts
13-May-18 09:55 47.006512 -110.321361 131 9497ft 172kts
13-May-18 09:56 46.973788 -110.271186 132 9494ft 173kts
13-May-18 09:57 46.940485 -110.220228 133 9492ft 173kts
13-May-18 09:58 46.907169 -110.169358 134 9491ft 173kts
13-May-18 09:59 46.875875 -110.121677 134 9490ft 171kts
13-May-18 10:00 46.843324 -110.072179 134 9490ft 170kts
13-May-18 10:01 46.810496 -110.022330 134 9490ft 170kts
13-May-18 10:02 46.777605 -109.972474 134 9490ft 170kts
13-May-18 10:03 46.744685 -109.922669 134 9490ft 170kts
13-May-18 10:04 46.711742 -109.872926 134 9490ft 170kts
13-May-18 10:05 46.678790 -109.823260 134 9490ft 170kts
13-May-18 10:06 46.645875 -109.773739 134 9491ft 170kts
13-May-18 10:07 46.612772 -109.724031 134 9491ft 170kts
13-May-18 10:08 46.579779 -109.674581 134 9491ft 170kts
13-May-18 10:09 46.546756 -109.625179 134 9491ft 170kts
13-May-18 10:10 46.513683 -109.575792 134 9491ft 170kts
13-May-18 10:11 46.480639 -109.526540 134 9491ft 170kts
13-May-18 10:12 46.447430 -109.477132 134 9491ft 170kts
13-May-18 10:13 46.414332 -109.427982 134 9491ft 170kts
13-May-18 10:14 46.381168 -109.378819 134 9491ft 170kts
13-May-18 10:15 46.349950 -109.332636 135 9359ft 177kts
13-May-18 10:16 46.319052 -109.286994 136 8930ft 184kts
13-May-18 10:17 46.283019 -109.233882 136 8429ft 184kts
13-May-18 10:18 46.247300 -109.181327 136 7928ft 183kts
13-May-18 10:19 46.216934 -109.136726 136 7521ft 180kts
13-May-18 10:20 46.189871 -109.097028 136 7497ft 167kts
13-May-18 10:21 46.162346 -109.056735 136 7499ft 163kts
13-May-18 10:22 46.134460 -109.015995 136 7499ft 161kts
13-May-18 10:23 46.103458 -108.970756 136 7499ft 160kts
13-May-18 10:24 46.072591 -108.925776 135 7499ft 160kts
13-May-18 10:25 46.041380 -108.880374 135 7499ft 159kts
13-May-18 10:26 46.010159 -108.835037 136 7499ft 159kts
13-May-18 10:27 45.981011 -108.792783 136 7494ft 140kts
13-May-18 10:28 45.954592 -108.754533 136 7504ft 139kts
13-May-18 10:29 45.924695 -108.711359 135 6824ft 164kts
13-May-18 10:30 45.893769 -108.666719 135 5527ft 168kts
13-May-18 10:31 45.863891 -108.623681 136 4498ft 140kts
13-May-18 10:32 45.839824 -108.588722 127 4496ft 119kts
13-May-18 10:33 45.822648 -108.549162 123 4495ft 116kts
13-May-18 10:34 45.814245 -108.508161 114 4491ft 90kts
13-May-18 10:35 45.798780 -108.498738 266 4190ft 102kts
13-May-18 10:36 45.803008 -108.523505 229 3655ft 0kts
13-May-18 10:37 45.802862 -108.527375 51 3655ft 0kts
13-May-18 10:38 45.802862 -108.527376 52 3655ft 0kts
13-May-18 10:39 45.802862 -108.527376 52 3655ft 0kts
13-May-18 10:40 45.802862 -108.527376 52 3655ft 0kts
13-May-18 10:41 45.802862 -108.527376 52 3655ft 0kts
13-May-18 10:42 45.802862 -108.527376 52 3655ft 0kts
13-May-18 10:43 45.802862 -108.527376 52 3655ft 0kts
13-May-18 10:44 45.802862 -108.527376 52 3655ft 0kts
13-May-18 10:45 45.802862 -108.527376 52 3655ft 0kts
13-May-18 10:46 45.802862 -108.527376 52 3655ft 0kts
13-May-18 10:47 45.802862 -108.527376 52 3655ft 0kts
13-May-18 10:48 45.802862 -108.527376 52 3655ft 0kts

Navigation Log

Ident Type
Flight plan parsing failed, navigation log unavailable